createdAt,value
2017-08-17T00:01:35.863Z,67.60
2017-08-17T00:04:03.324Z,67.70
2017-08-17T00:06:30.844Z,67.60
2017-08-17T00:08:58.416Z,67.70
2017-08-17T00:11:25.980Z,67.90
2017-08-17T00:13:53.635Z,67.90
2017-08-17T00:16:21.142Z,69.20
2017-08-17T00:18:48.687Z,68.50
2017-08-17T00:21:16.239Z,68.30
2017-08-17T00:23:43.718Z,68.60
2017-08-17T00:26:11.517Z,68.70
2017-08-17T00:28:39.045Z,68.70
2017-08-17T00:31:06.569Z,68.60
2017-08-17T00:33:34.059Z,68.80
2017-08-17T00:36:01.732Z,69.20
2017-08-17T00:38:29.277Z,69.50
2017-08-17T00:40:56.762Z,69.70
2017-08-17T00:43:24.321Z,70.00
2017-08-17T00:45:51.785Z,70.40
2017-08-17T00:48:19.260Z,70.60
2017-08-17T00:50:46.764Z,70.70
2017-08-17T00:53:14.245Z,70.60
2017-08-17T00:55:41.722Z,70.40
2017-08-17T00:58:10.287Z,70.30
2017-08-17T01:00:37.770Z,70.40
2017-08-17T01:03:05.288Z,70.50
2017-08-17T01:05:32.786Z,70.30
2017-08-17T01:08:00.379Z,70.60
2017-08-17T01:10:27.851Z,70.70
2017-08-17T01:12:55.364Z,71.10
2017-08-17T01:15:22.930Z,71.30
2017-08-17T01:17:50.453Z,71.50
2017-08-17T01:20:17.965Z,71.60
2017-08-17T01:22:45.437Z,71.70
2017-08-17T01:25:12.925Z,71.80
2017-08-17T01:27:40.426Z,71.60
2017-08-17T01:30:07.892Z,71.50
2017-08-17T01:32:35.411Z,71.20
2017-08-17T01:35:02.989Z,71.20
2017-08-17T01:37:30.498Z,71.10
2017-08-17T01:39:58.049Z,70.70
2017-08-17T01:42:25.574Z,70.90
2017-08-17T01:44:53.066Z,70.90
2017-08-17T01:47:26.286Z,70.70
2017-08-17T01:49:53.754Z,70.80
2017-08-17T01:52:21.250Z,71.10
2017-08-17T01:54:49.032Z,71.30
2017-08-17T01:57:16.679Z,71.30
2017-08-17T01:59:44.160Z,71.40
2017-08-17T02:02:11.824Z,71.60
2017-08-17T02:04:39.292Z,71.40
2017-08-17T02:07:06.769Z,71.30
2017-08-17T02:09:34.299Z,71.30
2017-08-17T02:12:01.791Z,72.00
2017-08-17T02:14:29.319Z,71.40
2017-08-17T02:16:57.102Z,71.40
2017-08-17T02:19:24.577Z,71.40
2017-08-17T02:21:52.089Z,71.40
2017-08-17T02:24:19.703Z,71.80
2017-08-17T02:26:47.177Z,71.50
2017-08-17T02:29:14.709Z,71.60
2017-08-17T02:31:42.253Z,72.20
2017-08-17T02:34:09.742Z,72.20
2017-08-17T02:36:37.274Z,72.50
2017-08-17T02:39:04.785Z,72.60
2017-08-17T02:41:32.263Z,72.60
2017-08-17T02:43:59.780Z,72.80
2017-08-17T02:46:27.528Z,72.80
2017-08-17T02:48:54.994Z,73.00
2017-08-17T02:51:22.469Z,72.60
2017-08-17T02:53:49.969Z,73.10
2017-08-17T02:56:17.485Z,73.00
2017-08-17T02:58:44.955Z,72.80
2017-08-17T03:01:12.841Z,72.80
2017-08-17T03:03:40.321Z,72.80
2017-08-17T03:06:07.830Z,72.70
2017-08-17T03:08:35.328Z,72.90
2017-08-17T03:11:02.882Z,73.00
2017-08-17T03:13:30.531Z,73.30
2017-08-17T03:15:58.378Z,73.40
2017-08-17T03:18:25.857Z,73.30
2017-08-17T03:20:53.370Z,73.10
2017-08-17T03:23:21.143Z,73.10
2017-08-17T03:25:48.662Z,72.70
2017-08-17T03:28:16.163Z,72.90
2017-08-17T03:30:43.758Z,73.20
2017-08-17T03:33:11.488Z,73.30
2017-08-17T03:35:38.968Z,73.80
2017-08-17T03:38:06.725Z,73.70
2017-08-17T03:40:34.197Z,73.30
2017-08-17T03:43:01.907Z,73.10
2017-08-17T03:45:29.578Z,73.10
2017-08-17T03:47:57.071Z,73.30
2017-08-17T03:50:24.998Z,73.50
2017-08-17T03:52:52.978Z,73.50
2017-08-17T03:55:20.469Z,73.30
2017-08-17T03:57:47.950Z,73.30
2017-08-17T04:00:15.452Z,73.00
2017-08-17T04:02:42.941Z,72.90
2017-08-17T04:05:10.431Z,73.00
2017-08-17T04:07:38.013Z,73.00
2017-08-17T04:10:05.554Z,72.70
2017-08-17T04:12:33.023Z,72.60
2017-08-17T04:15:00.681Z,72.50
2017-08-17T04:17:28.161Z,72.50
2017-08-17T04:19:55.789Z,72.30
2017-08-17T04:22:23.301Z,72.30
2017-08-17T04:24:50.768Z,72.10
2017-08-17T04:27:18.260Z,72.00
2017-08-17T04:29:45.773Z,71.90
2017-08-17T04:32:13.247Z,71.60
2017-08-17T04:34:40.730Z,71.70
2017-08-17T04:37:08.278Z,71.00
2017-08-17T04:39:35.748Z,70.70
2017-08-17T04:42:03.260Z,70.30
2017-08-17T04:44:30.769Z,70.20
2017-08-17T04:46:58.409Z,69.90
2017-08-17T04:49:25.882Z,69.60
2017-08-17T04:51:53.579Z,69.40
2017-08-17T04:54:21.100Z,69.00
2017-08-17T04:57:05.928Z,69.00
2017-08-17T04:59:33.402Z,68.60
2017-08-17T05:02:01.443Z,68.50
2017-08-17T05:04:29.162Z,68.00
2017-08-17T05:06:56.785Z,67.80
2017-08-17T05:09:24.295Z,67.80
2017-08-17T05:11:52.049Z,67.70
2017-08-17T05:14:19.523Z,67.50
2017-08-17T05:16:47.123Z,67.40
2017-08-17T05:19:14.914Z,67.00
2017-08-17T05:21:42.403Z,67.20
2017-08-17T05:24:10.062Z,67.00
2017-08-17T05:26:37.606Z,67.20
2017-08-17T05:29:05.086Z,66.90
2017-08-17T05:31:32.565Z,66.50
2017-08-17T05:34:00.110Z,66.50
2017-08-17T05:36:27.606Z,65.80
2017-08-17T05:38:55.076Z,65.60
2017-08-17T05:41:22.859Z,65.10
2017-08-17T05:43:50.324Z,64.60
2017-08-17T05:46:17.810Z,64.40
2017-08-17T05:48:45.662Z,64.20
2017-08-17T05:51:13.137Z,64.30
2017-08-17T05:53:40.726Z,63.90
2017-08-17T05:56:08.261Z,63.90
2017-08-17T05:58:35.956Z,63.60
2017-08-17T06:01:03.615Z,62.90
2017-08-17T06:03:31.436Z,61.90
2017-08-17T06:05:59.021Z,61.60
2017-08-17T06:08:26.515Z,61.30
2017-08-17T06:10:54.082Z,61.20
2017-08-17T06:13:21.602Z,60.70
2017-08-17T06:15:49.077Z,59.90
2017-08-17T06:18:16.611Z,59.50
2017-08-17T06:20:44.104Z,59.30
2017-08-17T06:23:11.669Z,59.10
2017-08-17T06:25:39.188Z,59.00
2017-08-17T06:28:06.689Z,58.30
2017-08-17T06:30:34.362Z,58.70
2017-08-17T06:33:02.269Z,58.50
2017-08-17T06:35:30.122Z,58.10
2017-08-17T06:37:57.629Z,57.90
2017-08-17T06:40:25.372Z,57.30
2017-08-17T06:42:52.861Z,56.40
2017-08-17T06:45:20.336Z,54.80
2017-08-17T06:47:47.863Z,53.70
2017-08-17T06:50:15.375Z,53.20
2017-08-17T06:52:42.912Z,52.20
2017-08-17T06:55:10.472Z,51.20
2017-08-17T06:57:38.091Z,49.60
2017-08-17T07:00:05.584Z,49.10
2017-08-17T07:02:33.125Z,49.10
2017-08-17T07:05:00.773Z,48.90
2017-08-17T07:07:28.477Z,49.80
2017-08-17T07:09:56.038Z,50.50
2017-08-17T07:12:23.525Z,50.50
2017-08-17T07:14:51.417Z,49.70
2017-08-17T07:17:18.915Z,48.40
2017-08-17T07:19:46.382Z,48.70
2017-08-17T07:22:13.919Z,49.30
2017-08-17T07:24:41.407Z,49.30
2017-08-17T07:27:08.986Z,49.30
2017-08-17T07:29:36.470Z,49.10
2017-08-17T07:32:05.368Z,49.40
2017-08-17T07:34:32.911Z,49.50
2017-08-17T07:37:00.464Z,50.50
2017-08-17T07:39:27.997Z,51.10
2017-08-17T07:41:55.480Z,51.50
2017-08-17T07:44:23.047Z,51.70
2017-08-17T07:46:50.575Z,51.70
2017-08-17T07:49:18.060Z,51.30
2017-08-17T07:51:45.581Z,50.30
2017-08-17T07:54:13.158Z,50.30
2017-08-17T07:56:40.678Z,50.30
2017-08-17T07:59:08.229Z,49.70
2017-08-17T08:01:35.853Z,49.20
2017-08-17T08:04:03.484Z,48.90
2017-08-17T08:06:31.067Z,48.10
2017-08-17T08:08:58.549Z,47.70
2017-08-17T08:11:26.125Z,46.70
2017-08-17T08:13:54.410Z,45.80
2017-08-17T08:16:21.883Z,45.90
2017-08-17T08:18:50.266Z,46.60
2017-08-17T08:21:17.753Z,45.90
2017-08-17T08:23:45.381Z,46.20
2017-08-17T08:26:12.972Z,46.10
2017-08-17T08:28:40.439Z,46.10
2017-08-17T08:31:08.159Z,45.20
2017-08-17T08:33:35.686Z,45.60
2017-08-17T08:36:03.954Z,44.00
2017-08-17T08:38:31.506Z,43.90
2017-08-17T08:40:59.097Z,43.70
2017-08-17T08:43:26.604Z,43.50
2017-08-17T08:45:54.187Z,42.90
2017-08-17T08:48:21.717Z,41.50
2017-08-17T08:50:49.197Z,41.90
2017-08-17T08:53:16.700Z,42.20
2017-08-17T08:55:44.288Z,42.50
2017-08-17T08:58:12.020Z,42.40
2017-08-17T09:00:39.566Z,42.60
2017-08-17T09:03:07.104Z,42.70
2017-08-17T09:05:34.653Z,43.60
2017-08-17T09:08:02.147Z,44.10
2017-08-17T09:10:29.885Z,44.50
2017-08-17T09:12:57.394Z,43.90
2017-08-17T09:15:24.911Z,43.40
2017-08-17T09:17:52.411Z,43.50
2017-08-17T09:20:19.880Z,43.70
2017-08-17T09:22:47.377Z,43.40
2017-08-17T09:25:14.883Z,42.70
2017-08-17T09:27:42.391Z,42.60
2017-08-17T09:30:09.939Z,42.30
2017-08-17T09:32:37.413Z,42.10
2017-08-17T09:35:04.880Z,41.80
2017-08-17T09:37:32.522Z,42.20
2017-08-17T09:40:00.035Z,40.80
2017-08-17T09:42:27.520Z,40.90
2017-08-17T09:44:55.044Z,39.50
2017-08-17T09:47:22.798Z,38.30
2017-08-17T09:49:50.324Z,34.70
2017-08-17T09:52:18.038Z,33.30
2017-08-17T09:54:45.621Z,34.20
2017-08-17T09:57:14.752Z,36.30
2017-08-17T09:59:42.275Z,34.50
2017-08-17T10:02:09.789Z,33.90
2017-08-17T10:04:37.271Z,32.50
2017-08-17T10:07:05.225Z,31.50
2017-08-17T10:09:32.716Z,32.10
2017-08-17T10:12:00.544Z,32.50
2017-08-17T10:14:28.053Z,31.60
2017-08-17T10:16:55.570Z,30.40
2017-08-17T10:19:23.184Z,30.70
2017-08-17T10:21:50.658Z,30.10
2017-08-17T10:24:18.165Z,28.10
2017-08-17T10:26:45.664Z,27.40
2017-08-17T10:29:13.180Z,26.60
2017-08-17T10:31:40.658Z,26.20
2017-08-17T10:34:08.156Z,26.10
2017-08-17T10:36:35.669Z,26.00
2017-08-17T10:39:03.205Z,26.10
2017-08-17T10:41:30.822Z,25.70
2017-08-17T10:43:59.255Z,25.30
2017-08-17T10:46:26.799Z,25.20
2017-08-17T10:48:54.407Z,25.20
2017-08-17T10:51:21.890Z,25.40
2017-08-17T10:53:49.369Z,25.10
2017-08-17T10:56:16.895Z,25.20
2017-08-17T10:58:44.416Z,25.70
2017-08-17T11:01:12.100Z,26.40
2017-08-17T11:03:39.569Z,26.50
2017-08-17T11:06:07.176Z,25.90
2017-08-17T11:08:34.733Z,26.20
2017-08-17T11:11:02.288Z,25.70
2017-08-17T11:13:29.850Z,26.10
2017-08-17T11:15:57.344Z,26.30
2017-08-17T11:18:24.913Z,26.40
2017-08-17T11:20:52.573Z,26.50
2017-08-17T11:23:21.177Z,27.90
2017-08-17T11:25:48.682Z,28.70
2017-08-17T11:28:16.380Z,29.50
2017-08-17T11:30:43.859Z,30.00
2017-08-17T11:33:11.515Z,31.80
2017-08-17T11:35:39.183Z,33.00
2017-08-17T11:38:06.663Z,33.30
2017-08-17T11:40:34.172Z,33.60
2017-08-17T11:43:01.724Z,33.90
2017-08-17T11:45:29.578Z,33.80
2017-08-17T11:47:57.126Z,35.20
2017-08-17T11:50:25.044Z,35.60
2017-08-17T11:52:52.526Z,35.40
2017-08-17T11:55:20.158Z,35.70
2017-08-17T11:57:47.671Z,36.30
2017-08-17T12:00:15.165Z,36.00
2017-08-17T12:02:42.686Z,35.70
2017-08-17T12:05:10.176Z,35.60
2017-08-17T12:07:37.834Z,34.30
2017-08-17T12:10:05.330Z,35.30
2017-08-17T12:12:32.852Z,35.10
2017-08-17T12:15:00.527Z,35.40
2017-08-17T12:17:28.123Z,35.80
2017-08-17T12:19:55.679Z,34.20
2017-08-17T12:22:23.239Z,35.40
2017-08-17T12:24:50.732Z,34.10
2017-08-17T12:27:18.215Z,34.40
2017-08-17T12:29:45.722Z,34.40
2017-08-17T12:32:13.250Z,34.40
2017-08-17T12:34:40.737Z,34.30
2017-08-17T12:37:08.207Z,36.20
2017-08-17T12:39:35.708Z,36.70
2017-08-17T12:42:03.304Z,37.20
2017-08-17T12:44:30.804Z,36.90
2017-08-17T12:46:58.294Z,37.10
2017-08-17T12:49:25.796Z,36.70
2017-08-17T12:51:53.292Z,36.60
2017-08-17T12:54:20.806Z,36.60
2017-08-17T12:56:48.264Z,36.70
2017-08-17T12:59:15.852Z,36.90
2017-08-17T13:01:43.342Z,36.30
2017-08-17T13:04:11.257Z,36.40
2017-08-17T13:06:38.789Z,36.30
2017-08-17T13:09:06.291Z,36.30
2017-08-17T13:11:33.836Z,36.50
2017-08-17T13:14:01.610Z,36.00
2017-08-17T13:16:29.161Z,36.40
2017-08-17T13:18:56.729Z,36.30
2017-08-17T13:21:24.268Z,35.90
2017-08-17T13:23:51.818Z,36.40
2017-08-17T13:26:19.285Z,36.10
2017-08-17T13:28:46.805Z,36.60
2017-08-17T13:31:14.285Z,37.70
2017-08-17T13:33:41.775Z,36.80
2017-08-17T13:36:09.264Z,37.10
2017-08-17T13:38:36.728Z,36.70
2017-08-17T13:41:04.229Z,35.70
2017-08-17T13:43:31.784Z,35.90
2017-08-17T13:45:59.442Z,36.50
2017-08-17T13:48:26.946Z,36.10
2017-08-17T13:50:54.495Z,36.70
2017-08-17T13:53:22.001Z,36.80
2017-08-17T13:55:49.676Z,37.00
2017-08-17T13:58:17.169Z,36.20
2017-08-17T14:00:44.780Z,36.30
2017-08-17T14:03:12.759Z,36.20
2017-08-17T14:05:40.279Z,36.60
2017-08-17T14:08:07.792Z,36.20
2017-08-17T14:10:35.350Z,35.80
2017-08-17T14:13:02.865Z,35.80
2017-08-17T14:15:30.496Z,36.70
2017-08-17T14:17:58.047Z,37.00
2017-08-17T14:20:25.543Z,36.40
2017-08-17T14:22:53.204Z,36.30
2017-08-17T14:25:20.926Z,36.90
2017-08-17T14:27:48.503Z,37.10
2017-08-17T14:30:16.017Z,37.30
2017-08-17T14:32:43.636Z,37.20
2017-08-17T14:35:11.220Z,37.70
2017-08-17T14:37:38.811Z,38.20
2017-08-17T14:40:06.339Z,38.50
2017-08-17T14:42:33.980Z,38.30
2017-08-17T14:45:01.489Z,38.50
2017-08-17T14:47:28.975Z,39.50
2017-08-17T14:49:56.494Z,39.60
2017-08-17T14:52:24.024Z,39.20
2017-08-17T14:54:51.519Z,39.10
2017-08-17T14:57:19.047Z,39.30
2017-08-17T14:59:46.612Z,38.70
2017-08-17T15:02:14.127Z,39.10
2017-08-17T15:04:41.623Z,39.60
2017-08-17T15:07:09.105Z,38.50
2017-08-17T15:09:36.596Z,39.20
2017-08-17T15:12:04.121Z,39.70
2017-08-17T15:14:31.609Z,39.60
2017-08-17T15:16:59.244Z,39.80
2017-08-17T15:19:26.783Z,39.70
2017-08-17T15:21:54.276Z,39.90
2017-08-17T15:24:21.805Z,39.20
2017-08-17T15:26:49.305Z,40.00
2017-08-17T15:29:16.795Z,39.40
2017-08-17T15:31:44.279Z,39.50
2017-08-17T15:34:12.153Z,38.90
2017-08-17T15:36:39.657Z,38.60
2017-08-17T15:39:07.141Z,39.30
2017-08-17T15:41:34.723Z,38.80
2017-08-17T15:44:02.448Z,38.70
2017-08-17T15:46:30.077Z,39.50
2017-08-17T15:48:57.577Z,40.60
2017-08-17T15:51:25.305Z,40.50
2017-08-17T15:53:52.795Z,40.70
2017-08-17T15:56:20.293Z,41.00
2017-08-17T15:58:47.770Z,41.50
2017-08-17T16:01:15.380Z,42.10
2017-08-17T16:03:42.865Z,42.30
2017-08-17T16:06:10.475Z,42.50
2017-08-17T16:08:38.086Z,42.20
2017-08-17T16:11:05.613Z,42.30
2017-08-17T16:13:33.140Z,42.60
2017-08-17T16:16:00.939Z,42.90
2017-08-17T16:18:28.514Z,42.60
2017-08-17T16:20:56.103Z,42.60
2017-08-17T16:23:23.617Z,42.70
2017-08-17T16:25:51.318Z,42.80
2017-08-17T16:28:18.825Z,43.00
2017-08-17T16:30:46.312Z,43.20
2017-08-17T16:33:13.824Z,43.00
2017-08-17T16:35:41.313Z,43.40
2017-08-17T16:38:08.863Z,43.70
2017-08-17T16:40:36.354Z,43.90
2017-08-17T16:43:04.120Z,44.00
2017-08-17T16:45:31.719Z,44.10
2017-08-17T16:47:59.320Z,44.20
2017-08-17T16:50:26.834Z,44.80
2017-08-17T16:52:54.315Z,44.70
2017-08-17T16:55:21.815Z,44.90
2017-08-17T16:57:49.323Z,45.00
2017-08-17T17:00:16.828Z,45.30
2017-08-17T17:02:44.358Z,45.40
2017-08-17T17:05:11.871Z,45.40
2017-08-17T17:07:39.504Z,45.50
2017-08-17T17:10:07.090Z,45.50
2017-08-17T17:12:34.576Z,45.60
2017-08-17T17:15:02.183Z,45.60
2017-08-17T17:17:29.740Z,45.70
2017-08-17T17:19:57.240Z,45.70
2017-08-17T17:22:24.717Z,45.60
2017-08-17T17:24:52.261Z,45.80
2017-08-17T17:27:19.797Z,46.20
2017-08-17T17:29:47.309Z,46.40
2017-08-17T17:32:14.805Z,46.30
2017-08-17T17:34:42.341Z,46.40
2017-08-17T17:37:09.972Z,46.70
2017-08-17T17:39:37.514Z,47.10
2017-08-17T17:42:05.039Z,47.40
2017-08-17T17:44:32.573Z,47.80
2017-08-17T17:47:00.098Z,48.00
2017-08-17T17:49:27.580Z,48.10
2017-08-17T17:51:55.120Z,48.30
2017-08-17T17:54:22.751Z,49.00
2017-08-17T17:56:50.348Z,49.10
2017-08-17T17:59:17.875Z,49.30
2017-08-17T18:01:45.383Z,49.50
2017-08-17T18:04:12.888Z,49.60
2017-08-17T18:06:40.415Z,49.80
2017-08-17T18:09:07.947Z,50.00
2017-08-17T18:11:35.622Z,49.80
2017-08-17T18:14:03.125Z,50.10
2017-08-17T18:16:30.823Z,50.30
2017-08-17T18:18:58.331Z,50.10
2017-08-17T18:21:25.802Z,50.30
2017-08-17T18:23:53.291Z,50.70
2017-08-17T18:26:20.807Z,50.60
2017-08-17T18:28:48.325Z,50.60
2017-08-17T18:31:15.803Z,50.50
2017-08-17T18:33:43.372Z,50.70
2017-08-17T18:36:11.087Z,50.80
2017-08-17T18:38:38.642Z,50.90
2017-08-17T18:41:06.137Z,51.30
2017-08-17T18:43:33.823Z,51.60
2017-08-17T18:46:01.522Z,51.70
2017-08-17T18:48:29.153Z,51.90
2017-08-17T18:50:56.661Z,51.80
2017-08-17T18:53:24.172Z,52.20
2017-08-17T18:55:51.700Z,52.50
2017-08-17T18:58:19.203Z,52.60
2017-08-17T19:00:46.701Z,52.60
2017-08-17T19:03:14.293Z,52.80
2017-08-17T19:05:41.776Z,53.30
2017-08-17T19:08:09.401Z,53.30
2017-08-17T19:10:36.950Z,53.60
2017-08-17T19:13:04.559Z,53.90
2017-08-17T19:15:32.321Z,54.10
2017-08-17T19:17:59.830Z,54.60
2017-08-17T19:20:27.403Z,54.30
2017-08-17T19:22:54.915Z,54.70
2017-08-17T19:25:22.878Z,54.60
2017-08-17T19:27:50.352Z,54.80
2017-08-17T19:30:17.977Z,53.70
2017-08-17T19:32:45.511Z,53.90
2017-08-17T19:35:13.003Z,53.70
2017-08-17T19:37:40.523Z,53.40
2017-08-17T19:40:08.063Z,53.40
2017-08-17T19:42:35.586Z,53.10
2017-08-17T19:45:03.078Z,53.80
2017-08-17T19:47:30.708Z,53.80
2017-08-17T19:49:58.297Z,54.00
2017-08-17T19:52:25.781Z,54.00
2017-08-17T19:54:53.267Z,54.10
2017-08-17T19:57:20.755Z,54.30
2017-08-17T19:59:48.254Z,54.50
2017-08-17T20:02:15.776Z,54.80
2017-08-17T20:04:43.361Z,54.90
2017-08-17T20:07:10.857Z,55.10
2017-08-17T20:09:38.361Z,55.40
2017-08-17T20:12:05.841Z,55.50
2017-08-17T20:14:33.376Z,55.40
2017-08-17T20:17:00.952Z,55.60
2017-08-17T20:19:28.533Z,55.70
2017-08-17T20:21:56.259Z,55.70
2017-08-17T20:24:23.743Z,56.10
2017-08-17T20:26:51.284Z,56.30
2017-08-17T20:29:18.795Z,56.40
2017-08-17T20:31:46.275Z,56.20
2017-08-17T20:34:13.795Z,56.60
2017-08-17T20:36:41.330Z,56.90
2017-08-17T20:39:09.062Z,57.10
2017-08-17T20:41:36.539Z,57.30
2017-08-17T20:44:04.126Z,57.40
2017-08-17T20:46:31.758Z,57.50
2017-08-17T20:48:59.321Z,57.70
2017-08-17T20:51:26.839Z,57.50
2017-08-17T20:53:54.458Z,57.60
2017-08-17T20:56:21.988Z,57.20
2017-08-17T20:58:49.641Z,56.90
2017-08-17T21:01:17.217Z,56.80
2017-08-17T21:03:44.709Z,57.00
2017-08-17T21:06:12.386Z,57.00
2017-08-17T21:08:39.941Z,57.10
2017-08-17T21:11:07.464Z,57.10
2017-08-17T21:13:34.973Z,57.20
2017-08-17T21:16:02.507Z,57.40
2017-08-17T21:18:30.105Z,57.20
2017-08-17T21:20:57.710Z,57.20
2017-08-17T21:23:25.190Z,57.20
2017-08-17T21:25:52.764Z,57.10
2017-08-17T21:28:20.255Z,57.20
2017-08-17T21:30:47.744Z,57.30
2017-08-17T21:33:15.231Z,57.30
2017-08-17T21:35:42.945Z,57.40
2017-08-17T21:38:10.589Z,57.50
2017-08-17T21:40:38.283Z,57.50
2017-08-17T21:43:05.798Z,57.50
2017-08-17T21:45:33.298Z,57.40
2017-08-17T21:48:01.021Z,57.40
2017-08-17T21:50:28.525Z,57.60
2017-08-17T21:52:56.032Z,57.70
2017-08-17T21:55:23.553Z,57.70
2017-08-17T21:57:51.043Z,57.90
2017-08-17T22:00:18.527Z,57.80
2017-08-17T22:02:46.027Z,58.20
2017-08-17T22:05:13.666Z,58.20
2017-08-17T22:07:41.137Z,58.30
2017-08-17T22:10:08.646Z,58.40
2017-08-17T22:12:36.125Z,58.50
2017-08-17T22:15:03.627Z,58.70
2017-08-17T22:17:31.305Z,58.80
2017-08-17T22:19:58.813Z,58.80
2017-08-17T22:22:26.302Z,59.00
2017-08-17T22:24:53.832Z,59.00
2017-08-17T22:27:21.739Z,58.80
2017-08-17T22:29:49.262Z,59.00
2017-08-17T22:32:16.824Z,59.00
2017-08-17T22:34:44.311Z,59.20
2017-08-17T22:37:11.831Z,59.30
2017-08-17T22:39:39.334Z,59.20
2017-08-17T22:42:06.811Z,59.40
2017-08-17T22:44:34.458Z,59.60
2017-08-17T22:47:02.018Z,59.70
2017-08-17T22:49:29.493Z,59.80
2017-08-17T22:51:56.989Z,59.90
2017-08-17T22:54:24.464Z,60.00
2017-08-17T22:56:51.958Z,60.00
2017-08-17T22:59:19.545Z,60.30
2017-08-17T23:01:47.048Z,60.50
2017-08-17T23:04:14.676Z,60.70
2017-08-17T23:06:42.276Z,61.00
2017-08-17T23:09:09.827Z,61.10
2017-08-17T23:11:37.356Z,61.20
2017-08-17T23:14:04.962Z,61.40
2017-08-17T23:16:32.453Z,61.70
2017-08-17T23:19:00.083Z,61.90
2017-08-17T23:21:27.557Z,62.30
2017-08-17T23:23:55.053Z,62.30
2017-08-17T23:26:22.551Z,62.40
2017-08-17T23:28:50.035Z,62.60
2017-08-17T23:31:17.550Z,62.50
2017-08-17T23:33:45.025Z,62.80
2017-08-17T23:36:12.689Z,62.80
2017-08-17T23:38:40.189Z,63.00
2017-08-17T23:41:07.824Z,63.00
2017-08-17T23:43:35.302Z,63.40
2017-08-17T23:46:03.577Z,63.40
2017-08-17T23:48:31.151Z,63.30
2017-08-17T23:50:59.504Z,63.60
2017-08-17T23:53:26.978Z,63.60
2017-08-17T23:55:55.342Z,64.00
2017-08-17T23:58:22.860Z,64.00
